sensor_id;sensor_type;location;lat;lon;timestamp;pressure;altitude;pressure_sealevel;temperature;humidity
55418;BME280;41287;47.554;7.844;2023-04-28T00:01:20;97838.81;;;17.00;62.42
55418;BME280;41287;47.554;7.844;2023-04-28T00:03:45;97834.22;;;17.01;62.48
55418;BME280;41287;47.554;7.844;2023-04-28T00:06:11;97832.63;;;16.99;62.53
55418;BME280;41287;47.554;7.844;2023-04-28T00:08:36;97823.38;;;17.01;62.46
55418;BME280;41287;47.554;7.844;2023-04-28T00:11:01;97828.00;;;17.00;62.54
55418;BME280;41287;47.554;7.844;2023-04-28T00:13:29;97828.00;;;17.00;62.45
55418;BME280;41287;47.554;7.844;2023-04-28T00:15:54;97827.19;;;16.99;62.49
55418;BME280;41287;47.554;7.844;2023-04-28T00:18:20;97829.13;;;16.99;62.43
55418;BME280;41287;47.554;7.844;2023-04-28T00:20:46;97817.16;;;17.00;62.38
55418;BME280;41287;47.554;7.844;2023-04-28T00:23:11;97821.78;;;16.99;62.44
55418;BME280;41287;47.554;7.844;2023-04-28T00:25:37;97812.56;;;17.01;62.50
55418;BME280;41287;47.554;7.844;2023-04-28T00:28:02;97816.06;;;17.01;62.58
55418;BME280;41287;47.554;7.844;2023-04-28T00:30:30;97822.59;;;17.00;62.46
55418;BME280;41287;47.554;7.844;2023-04-28T00:32:56;97823.38;;;17.01;62.39
55418;BME280;41287;47.554;7.844;2023-04-28T00:35:22;97821.47;;;17.01;62.74
55418;BME280;41287;47.554;7.844;2023-04-28T00:37:47;97818.75;;;17.01;62.55
55418;BME280;41287;47.554;7.844;2023-04-28T00:40:13;97828.47;;;17.02;62.37
55418;BME280;41287;47.554;7.844;2023-04-28T00:42:38;97829.59;;;17.01;62.51
55418;BME280;41287;47.554;7.844;2023-04-28T00:45:05;97826.88;;;17.01;62.47
55418;BME280;41287;47.554;7.844;2023-04-28T00:47:32;97818.75;;;17.01;62.60
55418;BME280;41287;47.554;7.844;2023-04-28T00:50:05;97821.47;;;17.01;62.52
55418;BME280;41287;47.554;7.844;2023-04-28T00:52:30;97817.16;;;17.00;62.50
55418;BME280;41287;47.554;7.844;2023-04-28T00:54:58;97807.94;;;17.01;62.53
55418;BME280;41287;47.554;7.844;2023-04-28T00:57:23;97811.44;;;17.02;62.55
55418;BME280;41287;47.554;7.844;2023-04-28T00:59:49;97822.25;;;17.02;62.52
55418;BME280;41287;47.554;7.844;2023-04-28T01:02:14;97822.59;;;17.00;62.54
55418;BME280;41287;47.554;7.844;2023-04-28T01:04:43;97803.63;;;17.00;62.51
55418;BME280;41287;47.554;7.844;2023-04-28T01:07:09;97813.34;;;17.01;62.71
55418;BME280;41287;47.554;7.844;2023-04-28T01:09:34;97824.16;;;17.01;62.52
55418;BME280;41287;47.554;7.844;2023-04-28T01:12:00;97826.88;;;17.01;62.46
55418;BME280;41287;47.554;7.844;2023-04-28T01:14:25;97825.75;;;17.02;62.60
55418;BME280;41287;47.554;7.844;2023-04-28T01:16:53;97833.09;;;17.02;62.53
55418;BME280;41287;47.554;7.844;2023-04-28T01:19:22;97843.13;;;17.01;62.39
55418;BME280;41287;47.554;7.844;2023-04-28T01:21:50;97831.50;;;17.01;62.45
55418;BME280;41287;47.554;7.844;2023-04-28T01:24:16;97847.41;;;17.02;62.52
55418;BME280;41287;47.554;7.844;2023-04-28T01:26:42;97831.19;;;17.02;62.60
55418;BME280;41287;47.554;7.844;2023-04-28T01:29:08;97851.25;;;17.01;62.57
55418;BME280;41287;47.554;7.844;2023-04-28T01:31:34;97842.78;;;17.03;62.57
55418;BME280;41287;47.554;7.844;2023-04-28T01:33:59;97839.28;;;17.02;62.54
55418;BME280;41287;47.554;7.844;2023-04-28T01:36:25;97824.97;;;17.02;62.54
55418;BME280;41287;47.554;7.844;2023-04-28T01:38:51;97832.28;;;17.01;62.57
55418;BME280;41287;47.554;7.844;2023-04-28T01:41:17;97826.88;;;17.01;62.48
55418;BME280;41287;47.554;7.844;2023-04-28T01:43:42;97811.44;;;17.02;62.55
55418;BME280;41287;47.554;7.844;2023-04-28T01:46:09;97803.31;;;17.02;62.63
55418;BME280;41287;47.554;7.844;2023-04-28T01:48:34;97801.41;;;17.02;62.39
55418;BME280;41287;47.554;7.844;2023-04-28T01:51:00;97797.91;;;17.02;62.45
55418;BME280;41287;47.554;7.844;2023-04-28T01:53:25;97797.09;;;17.01;62.54
55418;BME280;41287;47.554;7.844;2023-04-28T01:55:50;97793.28;;;17.02;62.46
55418;BME280;41287;47.554;7.844;2023-04-28T01:58:16;97800.59;;;17.02;62.46
55418;BME280;41287;47.554;7.844;2023-04-28T02:00:41;97801.41;;;17.02;62.46
55418;BME280;41287;47.554;7.844;2023-04-28T02:03:06;97801.41;;;17.02;62.64
55418;BME280;41287;47.554;7.844;2023-04-28T02:05:32;97808.72;;;17.02;62.46
55418;BME280;41287;47.554;7.844;2023-04-28T02:07:57;97814.94;;;17.02;62.39
55418;BME280;41287;47.554;7.844;2023-04-28T02:10:22;97806.81;;;17.02;62.50
55418;BME280;41287;47.554;7.844;2023-04-28T02:12:48;97804.91;;;17.03;62.46
55418;BME280;41287;47.554;7.844;2023-04-28T02:15:13;97811.13;;;17.03;62.48
55418;BME280;41287;47.554;7.844;2023-04-28T02:17:39;97815.72;;;17.03;62.44
55418;BME280;41287;47.554;7.844;2023-04-28T02:20:05;97820.34;;;17.02;62.58
55418;BME280;41287;47.554;7.844;2023-04-28T02:22:30;97821.16;;;17.03;62.55
55418;BME280;41287;47.554;7.844;2023-04-28T02:24:56;97832.75;;;17.03;62.52
55418;BME280;41287;47.554;7.844;2023-04-28T02:27:21;97825.75;;;17.02;62.54
55418;BME280;41287;47.554;7.844;2023-04-28T02:29:47;97827.34;;;17.03;62.51
55418;BME280;41287;47.554;7.844;2023-04-28T02:32:14;97822.72;;;17.04;62.53
55418;BME280;41287;47.554;7.844;2023-04-28T02:34:39;97821.94;;;17.03;62.54
55418;BME280;41287;47.554;7.844;2023-04-28T02:37:05;97819.22;;;17.03;62.38
55418;BME280;41287;47.554;7.844;2023-04-28T02:39:30;97813.03;;;17.03;62.49
55418;BME280;41287;47.554;7.844;2023-04-28T02:41:57;97792.16;;;17.03;62.38
55418;BME280;41287;47.554;7.844;2023-04-28T02:44:22;97797.56;;;17.03;62.49
55418;BME280;41287;47.554;7.844;2023-04-28T02:46:48;97788.66;;;17.03;62.52
55418;BME280;41287;47.554;7.844;2023-04-28T02:49:14;97787.53;;;17.04;62.41
55418;BME280;41287;47.554;7.844;2023-04-28T02:51:39;97780.53;;;17.03;62.80
55418;BME280;41287;47.554;7.844;2023-04-28T02:54:05;97779.44;;;17.04;62.40
55418;BME280;41287;47.554;7.844;2023-04-28T02:56:30;97780.53;;;17.03;62.44
55418;BME280;41287;47.554;7.844;2023-04-28T02:58:56;97791.84;;;17.05;62.60
55418;BME280;41287;47.554;7.844;2023-04-28T03:01:22;97784.03;;;17.03;62.65
55418;BME280;41287;47.554;7.844;2023-04-28T03:03:47;97798.38;;;17.04;62.36
55418;BME280;41287;47.554;7.844;2023-04-28T03:06:13;97798.38;;;17.04;62.49
55418;BME280;41287;47.554;7.844;2023-04-28T03:08:40;97803.00;;;17.03;62.52
55418;BME280;41287;47.554;7.844;2023-04-28T03:11:06;97806.50;;;17.04;62.49
55418;BME280;41287;47.554;7.844;2023-04-28T03:13:31;97801.06;;;17.04;62.37
55418;BME280;41287;47.554;7.844;2023-04-28T03:15:56;97792.97;;;17.04;62.42
55418;BME280;41287;47.554;7.844;2023-04-28T03:18:22;97785.63;;;17.04;62.49
55418;BME280;41287;47.554;7.844;2023-04-28T03:20:48;97782.13;;;17.04;62.48
55418;BME280;41287;47.554;7.844;2023-04-28T03:23:14;97784.03;;;17.03;62.58
55418;BME280;41287;47.554;7.844;2023-04-28T03:25:39;97782.13;;;17.04;62.33
55418;BME280;41287;47.554;7.844;2023-04-28T03:28:07;97787.53;;;17.04;62.55
55418;BME280;41287;47.554;7.844;2023-04-28T03:30:32;97796.47;;;17.04;62.53
55418;BME280;41287;47.554;7.844;2023-04-28T03:32:57;97800.28;;;17.03;62.43
55418;BME280;41287;47.554;7.844;2023-04-28T03:35:23;97801.06;;;17.04;62.55
55418;BME280;41287;47.554;7.844;2023-04-28T03:37:48;97813.50;;;17.05;62.45
55418;BME280;41287;47.554;7.844;2023-04-28T03:40:14;97806.50;;;17.04;62.50
55418;BME280;41287;47.554;7.844;2023-04-28T03:42:39;97813.50;;;17.05;62.53
55418;BME280;41287;47.554;7.844;2023-04-28T03:45:05;97815.41;;;17.04;62.53
55418;BME280;41287;47.554;7.844;2023-04-28T03:47:31;97816.19;;;17.05;62.50
55418;BME280;41287;47.554;7.844;2023-04-28T03:49:57;97820.81;;;17.04;62.67
55418;BME280;41287;47.554;7.844;2023-04-28T03:52:25;97821.94;;;17.03;62.42
55418;BME280;41287;47.554;7.844;2023-04-28T03:54:51;97822.41;;;17.05;62.49
55418;BME280;41287;47.554;7.844;2023-04-28T03:57:16;97826.22;;;17.04;62.58
55418;BME280;41287;47.554;7.844;2023-04-28T03:59:42;97820.81;;;17.04;62.57
55418;BME280;41287;47.554;7.844;2023-04-28T04:02:07;97828.16;;;17.04;62.44
55418;BME280;41287;47.554;7.844;2023-04-28T04:04:33;97828.16;;;17.04;62.50
55418;BME280;41287;47.554;7.844;2023-04-28T04:06:58;97836.25;;;17.04;62.48
55418;BME280;41287;47.554;7.844;2023-04-28T04:09:24;97841.34;;;17.05;62.47
55418;BME280;41287;47.554;7.844;2023-04-28T04:11:49;97828.94;;;17.04;62.70
55418;BME280;41287;47.554;7.844;2023-04-28T04:14:15;97839.78;;;17.04;62.45
55418;BME280;41287;47.554;7.844;2023-04-28T04:16:40;97840.56;;;17.05;62.30
55418;BME280;41287;47.554;7.844;2023-04-28T04:19:05;97845.97;;;17.05;62.48
55418;BME280;41287;47.554;7.844;2023-04-28T04:21:31;97849.47;;;17.05;62.82
55418;BME280;41287;47.554;7.844;2023-04-28T04:23:56;97843.28;;;17.05;62.99
55418;BME280;41287;47.554;7.844;2023-04-28T04:26:23;97842.47;;;17.04;63.21
55418;BME280;41287;47.554;7.844;2023-04-28T04:28:48;97852.19;;;17.05;63.25
55418;BME280;41287;47.554;7.844;2023-04-28T04:31:14;97858.72;;;17.04;63.27
55418;BME280;41287;47.554;7.844;2023-04-28T04:33:39;97857.59;;;17.05;63.06
55418;BME280;41287;47.554;7.844;2023-04-28T04:36:05;97863.00;;;17.05;63.40
55418;BME280;41287;47.554;7.844;2023-04-28T04:38:31;97870.34;;;17.05;63.28
55418;BME280;41287;47.554;7.844;2023-04-28T04:40:56;97862.22;;;17.05;63.20
55418;BME280;41287;47.554;7.844;2023-04-28T04:43:22;97869.53;;;17.04;63.40
55418;BME280;41287;47.554;7.844;2023-04-28T04:45:47;97864.94;;;17.05;63.26
55418;BME280;41287;47.554;7.844;2023-04-28T04:48:13;97861.44;;;17.04;63.32
55418;BME280;41287;47.554;7.844;2023-04-28T04:50:40;97867.63;;;17.05;63.20
55418;BME280;41287;47.554;7.844;2023-04-28T04:53:05;97867.63;;;17.05;63.13
55418;BME280;41287;47.554;7.844;2023-04-28T04:55:30;97866.84;;;17.04;63.29
55418;BME280;41287;47.554;7.844;2023-04-28T04:57:56;97856.00;;;17.04;63.22
55418;BME280;41287;47.554;7.844;2023-04-28T05:00:23;97848.69;;;17.05;63.42
55418;BME280;41287;47.554;7.844;2023-04-28T05:02:48;97858.03;;;17.07;63.35
55418;BME280;41287;47.554;7.844;2023-04-28T05:05:14;97861.88;;;17.06;63.58
55418;BME280;41287;47.554;7.844;2023-04-28T05:07:39;97850.72;;;17.08;63.44
55418;BME280;41287;47.554;7.844;2023-04-28T05:10:05;97842.59;;;17.08;63.54
55418;BME280;41287;47.554;7.844;2023-04-28T05:12:31;97829.84;;;17.08;63.67
55418;BME280;41287;47.554;7.844;2023-04-28T05:14:56;97835.59;;;17.07;63.77
55418;BME280;41287;47.554;7.844;2023-04-28T05:17:22;97836.75;;;17.06;63.57
55418;BME280;41287;47.554;7.844;2023-04-28T05:19:47;97838.31;;;17.07;63.61
55418;BME280;41287;47.554;7.844;2023-04-28T05:22:13;97842.91;;;17.06;63.67
55418;BME280;41287;47.554;7.844;2023-04-28T05:24:38;97843.72;;;17.07;63.50
55418;BME280;41287;47.554;7.844;2023-04-28T05:27:03;97851.03;;;17.06;63.42
55418;BME280;41287;47.554;7.844;2023-04-28T05:29:31;97861.88;;;17.06;63.67
55418;BME280;41287;47.554;7.844;2023-04-28T05:31:59;97857.59;;;17.05;63.35
55418;BME280;41287;47.554;7.844;2023-04-28T05:34:24;97853.75;;;17.06;63.55
55418;BME280;41287;47.554;7.844;2023-04-28T05:36:51;97854.53;;;17.07;63.39
55418;BME280;41287;47.554;7.844;2023-04-28T05:39:16;97848.34;;;17.06;63.50
55418;BME280;41287;47.554;7.844;2023-04-28T05:41:42;97839.78;;;17.04;63.40
55418;BME280;41287;47.554;7.844;2023-04-28T05:44:07;97829.75;;;17.05;63.17
55418;BME280;41287;47.554;7.844;2023-04-28T05:46:33;97838.66;;;17.05;63.20
55418;BME280;41287;47.554;7.844;2023-04-28T05:48:58;97841.34;;;17.05;63.40
55418;BME280;41287;47.554;7.844;2023-04-28T05:51:24;97848.69;;;17.05;63.06
55418;BME280;41287;47.554;7.844;2023-04-28T05:53:49;97849.47;;;17.05;63.05
55418;BME280;41287;47.554;7.844;2023-04-28T05:56:15;97849.47;;;17.05;63.09
55418;BME280;41287;47.554;7.844;2023-04-28T05:58:41;97854.09;;;17.05;63.01
55418;BME280;41287;47.554;7.844;2023-04-28T06:01:08;97854.91;;;17.05;62.86
55418;BME280;41287;47.554;7.844;2023-04-28T06:03:33;97854.09;;;17.05;62.86
55418;BME280;41287;47.554;7.844;2023-04-28T06:05:59;97860.31;;;17.05;62.89
55418;BME280;41287;47.554;7.844;2023-04-28T06:08:24;97849.47;;;17.05;62.94
55418;BME280;41287;47.554;7.844;2023-04-28T06:10:50;97841.34;;;17.05;62.96
55418;BME280;41287;47.554;7.844;2023-04-28T06:13:15;97833.25;;;17.05;62.80
55418;BME280;41287;47.554;7.844;2023-04-28T06:15:40;97833.25;;;17.05;63.16
55418;BME280;41287;47.554;7.844;2023-04-28T06:18:07;97836.75;;;17.06;63.05
55418;BME280;41287;47.554;7.844;2023-04-28T06:20:34;97840.56;;;17.05;63.06
55418;BME280;41287;47.554;7.844;2023-04-28T06:23:00;97834.03;;;17.06;63.25
55418;BME280;41287;47.554;7.844;2023-04-28T06:25:25;97842.91;;;17.06;63.23
55418;BME280;41287;47.554;7.844;2023-04-28T06:27:50;97827.81;;;17.05;63.17
55418;BME280;41287;47.554;7.844;2023-04-28T06:30:21;97835.16;;;17.05;62.99
55418;BME280;41287;47.554;7.844;2023-04-28T06:32:47;97835.94;;;17.05;63.13
55418;BME280;41287;47.554;7.844;2023-04-28T06:35:13;97841.81;;;17.07;62.98
55418;BME280;41287;47.554;7.844;2023-04-28T06:37:38;97834.81;;;17.06;63.06
55418;BME280;41287;47.554;7.844;2023-04-28T06:40:04;97836.75;;;17.06;62.92
55418;BME280;41287;47.554;7.844;2023-04-28T06:42:29;97824.31;;;17.05;63.04
55418;BME280;41287;47.554;7.844;2023-04-28T06:44:54;97835.16;;;17.05;62.89
55418;BME280;41287;47.554;7.844;2023-04-28T06:47:20;97845.97;;;17.05;62.90
55418;BME280;41287;47.554;7.844;2023-04-28T06:49:45;97856.00;;;17.04;63.04
55418;BME280;41287;47.554;7.844;2023-04-28T06:52:14;97854.91;;;17.05;62.80
55418;BME280;41287;47.554;7.844;2023-04-28T06:54:39;97846.78;;;17.05;62.98
55418;BME280;41287;47.554;7.844;2023-04-28T06:57:04;97861.44;;;17.04;62.96
55418;BME280;41287;47.554;7.844;2023-04-28T06:59:30;97845.97;;;17.05;62.90
55418;BME280;41287;47.554;7.844;2023-04-28T07:01:55;97848.69;;;17.05;63.01
55418;BME280;41287;47.554;7.844;2023-04-28T07:04:23;97851.41;;;17.05;62.96
55418;BME280;41287;47.554;7.844;2023-04-28T07:06:48;97854.91;;;17.05;62.86
55418;BME280;41287;47.554;7.844;2023-04-28T07:09:14;97855.69;;;17.06;63.08
55418;BME280;41287;47.554;7.844;2023-04-28T07:11:40;97853.31;;;17.04;62.96
55418;BME280;41287;47.554;7.844;2023-04-28T07:14:05;97860.31;;;17.05;62.79
55418;BME280;41287;47.554;7.844;2023-04-28T07:16:34;97873.84;;;17.05;62.98
55418;BME280;41287;47.554;7.844;2023-04-28T07:19:00;97889.28;;;17.05;62.99
55418;BME280;41287;47.554;7.844;2023-04-28T07:21:25;97873.84;;;17.05;62.96
55418;BME280;41287;47.554;7.844;2023-04-28T07:23:50;97874.97;;;17.04;62.82
55418;BME280;41287;47.554;7.844;2023-04-28T07:26:17;97882.28;;;17.04;62.99
55418;BME280;41287;47.554;7.844;2023-04-28T07:28:43;97885.47;;;17.06;63.10
55418;BME280;41287;47.554;7.844;2023-04-28T07:31:08;97881.16;;;17.05;63.10
55418;BME280;41287;47.554;7.844;2023-04-28T07:33:34;97881.16;;;17.05;63.03
55418;BME280;41287;47.554;7.844;2023-04-28T07:36:01;97884.66;;;17.05;63.00
55418;BME280;41287;47.554;7.844;2023-04-28T07:38:26;97883.06;;;17.04;62.99
55418;BME280;41287;47.554;7.844;2023-04-28T07:40:52;97880.38;;;17.04;62.65
55418;BME280;41287;47.554;7.844;2023-04-28T07:43:17;97891.19;;;17.04;63.01
55418;BME280;41287;47.554;7.844;2023-04-28T07:45:42;97889.28;;;17.05;63.13
55418;BME280;41287;47.554;7.844;2023-04-28T07:48:10;97894.69;;;17.05;62.97
55418;BME280;41287;47.554;7.844;2023-04-28T07:50:35;97894.69;;;17.05;62.97
55418;BME280;41287;47.554;7.844;2023-04-28T07:53:00;97897.41;;;17.05;62.99
55418;BME280;41287;47.554;7.844;2023-04-28T07:55:26;97893.91;;;17.04;63.20
55418;BME280;41287;47.554;7.844;2023-04-28T07:57:51;97893.91;;;17.04;63.05
55418;BME280;41287;47.554;7.844;2023-04-28T08:00:16;97893.91;;;17.04;63.04
55418;BME280;41287;47.554;7.844;2023-04-28T08:02:42;97887.69;;;17.04;63.09
55418;BME280;41287;47.554;7.844;2023-04-28T08:05:08;97883.06;;;17.04;63.03
55418;BME280;41287;47.554;7.844;2023-04-28T08:07:34;97895.50;;;17.05;63.03
55418;BME280;41287;47.554;7.844;2023-04-28T08:10:01;97895.50;;;17.05;63.05
55418;BME280;41287;47.554;7.844;2023-04-28T08:12:26;97905.53;;;17.05;62.99
55418;BME280;41287;47.554;7.844;2023-04-28T08:14:52;97904.72;;;17.04;63.08
55418;BME280;41287;47.554;7.844;2023-04-28T08:17:17;97900.13;;;17.05;63.04
55418;BME280;41287;47.554;7.844;2023-04-28T08:19:44;97896.63;;;17.04;63.02
55418;BME280;41287;47.554;7.844;2023-04-28T08:22:11;97900.13;;;17.05;63.03
55418;BME280;41287;47.554;7.844;2023-04-28T08:24:36;97890.41;;;17.04;63.10
55418;BME280;41287;47.554;7.844;2023-04-28T08:27:03;97899.31;;;17.04;63.18
55418;BME280;41287;47.554;7.844;2023-04-28T08:29:31;97906.66;;;17.04;63.03
55418;BME280;41287;47.554;7.844;2023-04-28T08:31:57;97898.53;;;17.04;63.04
55418;BME280;41287;47.554;7.844;2023-04-28T08:34:22;97899.31;;;17.04;62.98
55418;BME280;41287;47.554;7.844;2023-04-28T08:36:50;97902.03;;;17.04;63.14
55418;BME280;41287;47.554;7.844;2023-04-28T08:39:16;97906.66;;;17.04;62.97
55418;BME280;41287;47.554;7.844;2023-04-28T08:41:41;97902.03;;;17.04;62.67
55418;BME280;41287;47.554;7.844;2023-04-28T08:44:09;97904.72;;;17.04;63.16
55418;BME280;41287;47.554;7.844;2023-04-28T08:46:39;97905.84;;;17.03;63.02
55418;BME280;41287;47.554;7.844;2023-04-28T08:49:06;97909.34;;;17.04;63.17
55418;BME280;41287;47.554;7.844;2023-04-28T08:51:43;97907.75;;;17.03;63.13
55418;BME280;41287;47.554;7.844;2023-04-28T08:54:10;97903.94;;;17.04;63.11
55418;BME280;41287;47.554;7.844;2023-04-28T08:56:38;97909.34;;;17.04;63.08
55418;BME280;41287;47.554;7.844;2023-04-28T08:59:03;97909.34;;;17.04;63.09
55418;BME280;41287;47.554;7.844;2023-04-28T09:01:30;97913.19;;;17.03;63.10
55418;BME280;41287;47.554;7.844;2023-04-28T09:03:55;97913.19;;;17.03;63.10
55418;BME280;41287;47.554;7.844;2023-04-28T09:06:23;97920.19;;;17.04;63.20
55418;BME280;41287;47.554;7.844;2023-04-28T09:08:48;97913.97;;;17.03;63.12
55418;BME280;41287;47.554;7.844;2023-04-28T09:11:14;97913.97;;;17.03;63.07
55418;BME280;41287;47.554;7.844;2023-04-28T09:13:40;97920.97;;;17.04;63.13
55418;BME280;41287;47.554;7.844;2023-04-28T09:16:06;97921.78;;;17.05;62.95
55418;BME280;41287;47.554;7.844;2023-04-28T09:18:33;97920.19;;;17.04;63.20
55418;BME280;41287;47.554;7.844;2023-04-28T09:21:05;97925.59;;;17.04;63.21
55418;BME280;41287;47.554;7.844;2023-04-28T09:23:31;97918.28;;;17.04;63.10
55418;BME280;41287;47.554;7.844;2023-04-28T09:28:27;97925.59;;;17.04;63.18
55418;BME280;41287;47.554;7.844;2023-04-28T09:30:53;97917.47;;;17.04;63.24
55418;BME280;41287;47.554;7.844;2023-04-28T09:33:20;97922.09;;;17.03;63.03
55418;BME280;41287;47.554;7.844;2023-04-28T09:35:46;97919.38;;;17.03;63.17
55418;BME280;41287;47.554;7.844;2023-04-28T09:38:13;97920.19;;;17.04;62.96
55418;BME280;41287;47.554;7.844;2023-04-28T09:43:32;97915.09;;;17.02;62.92
55418;BME280;41287;47.554;7.844;2023-04-28T09:46:00;97913.97;;;17.03;63.12
55418;BME280;41287;47.554;7.844;2023-04-28T09:48:27;97913.66;;;17.05;63.24
55418;BME280;41287;47.554;7.844;2023-04-28T09:50:54;97910.16;;;17.04;63.28
55418;BME280;41287;47.554;7.844;2023-04-28T09:53:25;97914.44;;;17.05;63.54
55418;BME280;41287;47.554;7.844;2023-04-28T09:55:52;97917.94;;;17.06;63.63
55418;BME280;41287;47.554;7.844;2023-04-28T09:58:22;97924.47;;;17.05;63.74
55418;BME280;41287;47.554;7.844;2023-04-28T10:00:54;97919.84;;;17.05;63.74
55418;BME280;41287;47.554;7.844;2023-04-28T10:03:21;97923.38;;;17.06;63.72
55418;BME280;41287;47.554;7.844;2023-04-28T10:05:47;97922.56;;;17.05;63.62
55418;BME280;41287;47.554;7.844;2023-04-28T10:08:13;97912.53;;;17.06;63.76
55418;BME280;41287;47.554;7.844;2023-04-28T10:10:39;97919.06;;;17.05;63.58
55418;BME280;41287;47.554;7.844;2023-04-28T10:13:08;97921.78;;;17.05;63.48
55418;BME280;41287;47.554;7.844;2023-04-28T10:15:34;97919.84;;;17.05;63.48
55418;BME280;41287;47.554;7.844;2023-04-28T10:18:00;97920.97;;;17.04;63.44
55418;BME280;41287;47.554;7.844;2023-04-28T10:20:28;97913.66;;;17.05;63.33
55418;BME280;41287;47.554;7.844;2023-04-28T10:22:59;97907.44;;;17.04;63.35
55418;BME280;41287;47.554;7.844;2023-04-28T10:25:32;97908.25;;;17.05;63.34
55418;BME280;41287;47.554;7.844;2023-04-28T10:28:05;97906.31;;;17.05;63.39
55418;BME280;41287;47.554;7.844;2023-04-28T10:30:31;97904.72;;;17.04;63.35
55418;BME280;41287;47.554;7.844;2023-04-28T10:35:42;97909.34;;;17.04;63.24
55418;BME280;41287;47.554;7.844;2023-04-28T10:38:14;97902.81;;;17.05;63.36
55418;BME280;41287;47.554;7.844;2023-04-28T10:43:07;97910.16;;;17.04;63.35
55418;BME280;41287;47.554;7.844;2023-04-28T10:48:20;97919.69;;;17.02;63.44
55418;BME280;41287;47.554;7.844;2023-04-28T10:56:12;97916.34;;;17.05;63.01
55418;BME280;41287;47.554;7.844;2023-04-28T10:58:39;97907.44;;;17.04;63.06
55418;BME280;41287;47.554;7.844;2023-04-28T11:03:50;97905.84;;;17.03;63.15
55418;BME280;41287;47.554;7.844;2023-04-28T11:06:32;97917.00;;;17.02;63.09
55418;BME280;41287;47.554;7.844;2023-04-28T11:11:36;97897.72;;;17.03;63.02
55418;BME280;41287;47.554;7.844;2023-04-28T11:16:55;97900.75;;;17.02;63.19
55418;BME280;41287;47.554;7.844;2023-04-28T11:19:35;97896.13;;;17.02;63.29
55418;BME280;41287;47.554;7.844;2023-04-28T11:22:03;97903.16;;;17.03;63.13
55418;BME280;41287;47.554;7.844;2023-04-28T11:24:33;97895.34;;;17.02;63.22
55418;BME280;41287;47.554;7.844;2023-04-28T11:26:59;97900.44;;;17.03;62.99
55418;BME280;41287;47.554;7.844;2023-04-28T11:29:38;97898.06;;;17.02;63.08
55418;BME280;41287;47.554;7.844;2023-04-28T11:32:07;97893.13;;;17.04;63.16
55418;BME280;41287;47.554;7.844;2023-04-28T11:34:33;97895.81;;;17.04;63.41
55418;BME280;41287;47.554;7.844;2023-04-28T11:36:59;97891.19;;;17.04;63.41
55418;BME280;41287;47.554;7.844;2023-04-28T11:39:27;97888.50;;;17.04;63.55
55418;BME280;41287;47.554;7.844;2023-04-28T11:41:53;97887.69;;;17.04;63.58
55418;BME280;41287;47.554;7.844;2023-04-28T11:44:20;97887.38;;;17.05;64.16
55418;BME280;41287;47.554;7.844;2023-04-28T11:49:16;97871.56;;;17.07;64.49
55418;BME280;41287;47.554;7.844;2023-04-28T11:51:42;97880.81;;;17.06;64.62
55418;BME280;41287;47.554;7.844;2023-04-28T11:54:09;97884.00;;;17.08;64.67
55418;BME280;41287;47.554;7.844;2023-04-28T11:56:42;97872.69;;;17.06;64.69
55418;BME280;41287;47.554;7.844;2023-04-28T11:59:11;97876.19;;;17.07;64.69
55418;BME280;41287;47.554;7.844;2023-04-28T12:01:52;97871.94;;;17.06;64.47
55418;BME280;41287;47.554;7.844;2023-04-28T12:07:12;97869.22;;;17.06;64.32
55418;BME280;41287;47.554;7.844;2023-04-28T12:10:10;97864.56;;;17.06;64.32
55418;BME280;41287;47.554;7.844;2023-04-28T12:12:29;97868.06;;;17.07;64.27
55418;BME280;41287;47.554;7.844;2023-04-28T12:15:02;97860.31;;;17.05;64.17
55418;BME280;41287;47.554;7.844;2023-04-28T12:19:58;97868.88;;;17.07;64.01
55418;BME280;41287;47.554;7.844;2023-04-28T12:22:24;97870.00;;;17.06;63.93
55418;BME280;41287;47.554;7.844;2023-04-28T12:25:03;97877.66;;;17.04;63.94
55418;BME280;41287;47.554;7.844;2023-04-28T12:27:29;97871.13;;;17.05;63.82
55418;BME280;41287;47.554;7.844;2023-04-28T12:29:56;97863.00;;;17.05;63.66
55418;BME280;41287;47.554;7.844;2023-04-28T12:32:38;97856.00;;;17.04;63.82
55418;BME280;41287;47.554;7.844;2023-04-28T12:35:05;97857.59;;;17.05;63.82
55418;BME280;41287;47.554;7.844;2023-04-28T12:37:30;97850.59;;;17.04;63.83
55418;BME280;41287;47.554;7.844;2023-04-28T12:39:56;97854.91;;;17.05;63.90
55418;BME280;41287;47.554;7.844;2023-04-28T12:42:21;97851.41;;;17.05;63.66
55418;BME280;41287;47.554;7.844;2023-04-28T12:44:47;97855.69;;;17.06;63.76
55418;BME280;41287;47.554;7.844;2023-04-28T12:47:14;97856.44;;;17.06;63.68
55418;BME280;41287;47.554;7.844;2023-04-28T12:49:42;97844.06;;;17.05;63.80
55418;BME280;41287;47.554;7.844;2023-04-28T12:52:08;97852.19;;;17.05;63.79
55418;BME280;41287;47.554;7.844;2023-04-28T12:54:33;97846.78;;;17.05;63.62
55418;BME280;41287;47.554;7.844;2023-04-28T12:57:01;97844.06;;;17.05;63.61
55418;BME280;41287;47.554;7.844;2023-04-28T12:59:27;97841.34;;;17.05;63.75
55418;BME280;41287;47.554;7.844;2023-04-28T13:01:52;97842.47;;;17.04;63.63
55418;BME280;41287;47.554;7.844;2023-04-28T13:04:19;97827.81;;;17.05;63.61
55418;BME280;41287;47.554;7.844;2023-04-28T13:06:45;97827.81;;;17.05;63.71
55418;BME280;41287;47.554;7.844;2023-04-28T13:09:11;97838.66;;;17.05;63.59
55418;BME280;41287;47.554;7.844;2023-04-28T13:11:38;97831.31;;;17.06;63.48
55418;BME280;41287;47.554;7.844;2023-04-28T13:14:03;97830.53;;;17.05;63.67
55418;BME280;41287;47.554;7.844;2023-04-28T13:16:28;97830.53;;;17.05;63.52
55418;BME280;41287;47.554;7.844;2023-04-28T13:18:56;97827.81;;;17.05;63.57
55418;BME280;41287;47.554;7.844;2023-04-28T13:21:23;97819.69;;;17.05;63.50
55418;BME280;41287;47.554;7.844;2023-04-28T13:23:51;97813.16;;;17.06;63.68
55418;BME280;41287;47.554;7.844;2023-04-28T13:26:16;97817.78;;;17.06;63.42
55418;BME280;41287;47.554;7.844;2023-04-28T13:28:46;97812.38;;;17.06;63.56
55418;BME280;41287;47.554;7.844;2023-04-28T13:31:12;97812.38;;;17.06;63.61